createdAt,value
2019-02-08T00:01:36.334Z,19.40
2019-02-08T00:03:37.826Z,22.17
2019-02-08T00:05:39.274Z,20.17
2019-02-08T00:07:40.629Z,21.15
2019-02-08T00:09:42.037Z,20.50
2019-02-08T00:11:43.402Z,22.15
2019-02-08T00:13:44.743Z,21.65
2019-02-08T00:15:46.179Z,22.10
2019-02-08T00:17:48.355Z,22.10
2019-02-08T00:19:49.899Z,22.48
2019-02-08T00:21:51.290Z,23.85
2019-02-08T00:23:52.647Z,22.73
2019-02-08T00:25:54.011Z,21.12
2019-02-08T00:27:55.539Z,20.52
2019-02-08T00:29:56.918Z,22.15
2019-02-08T00:31:58.357Z,18.77
2019-02-08T00:33:59.963Z,20.37
2019-02-08T00:36:01.311Z,22.02
2019-02-08T00:38:03.669Z,21.12
2019-02-08T00:40:10.785Z,20.92
2019-02-08T00:42:12.195Z,20.48
2019-02-08T00:44:13.549Z,20.92
2019-02-08T00:46:14.960Z,20.57
2019-02-08T00:48:16.891Z,22.73
2019-02-08T00:50:24.618Z,20.77
2019-02-08T00:52:26.018Z,23.10
2019-02-08T00:54:27.377Z,22.75
2019-02-08T00:56:28.771Z,21.10
2019-02-08T00:58:30.436Z,20.37
2019-02-08T01:00:31.904Z,21.77
2019-02-08T01:02:33.258Z,21.90
2019-02-08T01:04:34.663Z,18.17
2019-02-08T01:06:36.022Z,18.65
2019-02-08T01:08:37.376Z,21.95
2019-02-08T01:10:38.954Z,19.95
2019-02-08T01:12:40.507Z,20.55
2019-02-08T01:14:41.954Z,19.62
2019-02-08T01:16:43.354Z,21.45
2019-02-08T01:18:44.719Z,22.10
2019-02-08T01:20:46.077Z,20.97
2019-02-08T01:22:47.772Z,19.85
2019-02-08T01:24:49.124Z,19.62
2019-02-08T01:26:50.482Z,20.08
2019-02-08T01:28:51.874Z,20.50
2019-02-08T01:30:53.383Z,19.65
2019-02-08T01:32:54.835Z,20.05
2019-02-08T01:34:56.188Z,20.65
2019-02-08T01:36:57.601Z,20.40
2019-02-08T01:38:58.996Z,21.35
2019-02-08T01:41:00.445Z,19.65
2019-02-08T01:43:02.135Z,19.87
2019-02-08T01:45:08.639Z,22.95
2019-02-08T01:47:10.001Z,18.95
2019-02-08T01:49:11.616Z,20.15
2019-02-08T01:51:13.069Z,20.08
2019-02-08T01:53:14.421Z,19.10
2019-02-08T01:55:16.498Z,18.27
2019-02-08T01:57:17.887Z,19.82
2019-02-08T01:59:19.246Z,20.50
2019-02-08T02:01:20.603Z,20.40
2019-02-08T02:03:22.105Z,21.15
2019-02-08T02:05:23.657Z,19.70
2019-02-08T02:07:25.049Z,18.70
2019-02-08T02:09:26.462Z,17.80
2019-02-08T02:11:27.809Z,21.00
2019-02-08T02:13:29.371Z,18.57
2019-02-08T02:15:31.064Z,18.50
2019-02-08T02:17:32.419Z,19.70
2019-02-08T02:19:33.775Z,16.82
2019-02-08T02:21:35.169Z,21.07
2019-02-08T02:23:36.620Z,19.42
2019-02-08T02:25:38.075Z,18.37
2019-02-08T02:27:39.476Z,18.57
2019-02-08T02:29:40.899Z,20.12
2019-02-08T02:31:42.312Z,19.30
2019-02-08T02:33:43.654Z,17.92
2019-02-08T02:35:45.068Z,19.67
2019-02-08T02:37:46.521Z,18.45
2019-02-08T02:39:47.876Z,20.35
2019-02-08T02:41:49.423Z,20.32
2019-02-08T02:43:50.784Z,16.62
2019-02-08T02:45:52.143Z,21.27
2019-02-08T02:47:54.054Z,19.23
2019-02-08T02:49:55.465Z,18.77
2019-02-08T02:51:56.819Z,19.00
2019-02-08T02:54:04.774Z,20.32
2019-02-08T02:56:01.590Z,18.67
2019-02-08T02:58:04.365Z,18.95
2019-02-08T03:00:11.470Z,19.98
2019-02-08T03:02:12.833Z,18.50
2019-02-08T03:04:14.191Z,20.27
2019-02-08T03:06:15.614Z,19.07
2019-02-08T03:08:17.165Z,19.15
2019-02-08T03:10:21.522Z,19.00
2019-02-08T03:12:22.925Z,21.00
2019-02-08T03:14:24.286Z,20.40
2019-02-08T03:16:25.688Z,18.15
2019-02-08T03:18:27.047Z,17.42
2019-02-08T03:20:28.395Z,19.65
2019-02-08T03:22:29.797Z,18.60
2019-02-08T03:24:31.153Z,18.50
2019-02-08T03:26:32.573Z,19.55
2019-02-08T03:28:33.930Z,18.85
2019-02-08T03:30:42.636Z,19.05
2019-02-08T03:32:44.019Z,18.80
2019-02-08T03:34:45.381Z,18.92
2019-02-08T03:36:46.735Z,20.77
2019-02-08T03:38:48.165Z,19.87
2019-02-08T03:40:49.638Z,17.90
2019-02-08T03:42:51.313Z,18.02
2019-02-08T03:44:52.720Z,17.55
2019-02-08T03:46:54.073Z,19.00
2019-02-08T03:48:55.430Z,18.30
2019-02-08T03:50:57.012Z,17.48
2019-02-08T03:52:58.360Z,17.17
2019-02-08T03:54:59.808Z,18.98
2019-02-08T03:57:01.209Z,18.20
2019-02-08T03:59:03.382Z,16.97
2019-02-08T04:01:05.124Z,17.98
2019-02-08T04:03:06.490Z,19.73
2019-02-08T04:05:07.890Z,18.30
2019-02-08T04:07:09.250Z,17.48
2019-02-08T04:09:10.864Z,17.77
2019-02-08T04:11:12.326Z,19.92
2019-02-08T04:13:13.771Z,18.17
2019-02-08T04:15:18.186Z,17.17
2019-02-08T04:17:19.559Z,17.70
2019-02-08T04:19:20.917Z,19.92
2019-02-08T04:21:22.319Z,16.85
2019-02-08T04:23:23.679Z,16.90
2019-02-08T04:25:25.179Z,20.82
2019-02-08T04:27:26.585Z,17.60
2019-02-08T04:29:28.012Z,18.07
2019-02-08T04:31:29.390Z,17.87
2019-02-08T04:33:30.863Z,18.95
2019-02-08T04:35:32.262Z,18.32
2019-02-08T04:37:33.618Z,20.30
2019-02-08T04:39:34.987Z,18.57
2019-02-08T04:41:36.406Z,17.27
2019-02-08T04:43:37.776Z,17.87
2019-02-08T04:45:39.173Z,17.35
2019-02-08T04:47:40.529Z,16.62
2019-02-08T04:49:41.875Z,17.90
2019-02-08T04:51:43.830Z,18.60
2019-02-08T04:53:45.191Z,18.82
2019-02-08T04:55:46.546Z,17.70
2019-02-08T04:57:47.974Z,19.32
2019-02-08T04:59:49.349Z,18.07
2019-02-08T05:01:50.703Z,18.12
2019-02-08T05:03:52.082Z,18.80
2019-02-08T05:05:53.442Z,17.70
2019-02-08T05:07:54.840Z,16.87
2019-02-08T05:09:56.329Z,17.80
2019-02-08T05:11:57.694Z,18.17
2019-02-08T05:13:59.302Z,18.35
2019-02-08T05:16:00.645Z,19.57
2019-02-08T05:18:02.303Z,16.77
2019-02-08T05:20:12.548Z,17.17
2019-02-08T05:22:13.892Z,17.62
2019-02-08T05:24:15.499Z,15.60
2019-02-08T05:26:16.856Z,17.73
2019-02-08T05:28:18.229Z,18.15
2019-02-08T05:30:34.518Z,17.10
2019-02-08T05:32:36.172Z,17.05
2019-02-08T05:34:37.548Z,16.37
2019-02-08T05:36:39.115Z,16.75
2019-02-08T05:38:40.490Z,16.90
2019-02-08T05:40:41.973Z,17.85
2019-02-08T05:42:43.372Z,17.45
2019-02-08T05:44:44.829Z,18.65
2019-02-08T05:46:46.232Z,16.73
2019-02-08T05:48:47.602Z,17.23
2019-02-08T05:50:48.990Z,15.90
2019-02-08T05:52:50.915Z,16.23
2019-02-08T05:54:54.403Z,16.45
2019-02-08T05:56:55.643Z,16.32
2019-02-08T05:58:57.030Z,16.82
2019-02-08T06:00:58.485Z,16.67
2019-02-08T06:03:00.366Z,15.48
2019-02-08T06:05:01.821Z,14.35
2019-02-08T06:07:03.391Z,16.45
2019-02-08T06:09:07.884Z,16.25
2019-02-08T06:11:09.262Z,15.05
2019-02-08T06:13:10.732Z,17.30
2019-02-08T06:15:20.172Z,16.48
2019-02-08T06:17:21.546Z,15.72
2019-02-08T06:19:23.112Z,15.35
2019-02-08T06:21:24.474Z,14.87
2019-02-08T06:23:25.836Z,16.20
2019-02-08T06:25:27.263Z,16.80
2019-02-08T06:27:28.639Z,15.65
2019-02-08T06:29:29.983Z,15.72
2019-02-08T06:31:31.373Z,13.65
2019-02-08T06:33:32.743Z,14.98
2019-02-08T06:35:34.919Z,14.80
2019-02-08T06:37:43.988Z,17.17
2019-02-08T06:39:39.567Z,17.52
2019-02-08T06:41:40.974Z,14.70
2019-02-08T06:43:42.328Z,14.70
2019-02-08T06:45:43.697Z,15.25
2019-02-08T06:47:45.322Z,15.48
2019-02-08T06:49:46.699Z,13.62
2019-02-08T06:51:48.066Z,13.98
2019-02-08T06:53:49.465Z,12.63
2019-02-08T06:55:53.848Z,14.20
2019-02-08T06:57:59.200Z,13.15
2019-02-08T07:00:02.466Z,13.62
2019-02-08T07:02:20.865Z,14.20
2019-02-08T07:04:24.367Z,13.48
2019-02-08T07:06:36.701Z,14.10
2019-02-08T07:08:56.454Z,13.45
2019-02-08T07:11:16.294Z,13.83
2019-02-08T07:13:19.590Z,11.85
2019-02-08T07:15:22.863Z,12.55
2019-02-08T07:17:26.135Z,16.10
2019-02-08T07:19:29.440Z,14.00
2019-02-08T07:21:32.756Z,15.13
2019-02-08T07:23:45.191Z,16.23
2019-02-08T07:26:00.355Z,18.45
2019-02-08T07:28:12.702Z,16.02
2019-02-08T07:30:32.867Z,14.47
2019-02-08T07:32:36.149Z,16.50
2019-02-08T07:34:45.131Z,12.70
2019-02-08T07:36:55.343Z,12.03
2019-02-08T07:39:15.477Z,14.90
2019-02-08T07:41:19.536Z,12.23
2019-02-08T07:43:40.033Z,10.68
2019-02-08T07:45:56.317Z,12.35
2019-02-08T07:47:59.791Z,10.25
2019-02-08T07:50:03.153Z,10.45
2019-02-08T07:52:06.661Z,13.30
2019-02-08T07:54:27.165Z,10.78
2019-02-08T07:56:30.485Z,10.10
2019-02-08T07:58:48.791Z,9.85
2019-02-08T08:00:52.664Z,10.20
2019-02-08T08:02:56.036Z,11.45
2019-02-08T08:04:59.325Z,12.28
2019-02-08T08:07:11.766Z,11.97
2019-02-08T08:09:31.589Z,10.95
2019-02-08T08:11:35.035Z,11.05
2019-02-08T08:13:40.938Z,10.13
2019-02-08T08:15:44.326Z,11.53
2019-02-08T08:18:02.527Z,10.82
2019-02-08T08:20:31.071Z,10.18
2019-02-08T08:22:43.343Z,9.88
2019-02-08T08:24:49.022Z,10.82
2019-02-08T08:26:58.787Z,9.60
2019-02-08T08:29:02.090Z,10.15
2019-02-08T08:31:21.026Z,9.75
2019-02-08T08:33:34.183Z,8.33
2019-02-08T08:36:13.757Z,10.55
2019-02-08T08:38:35.756Z,9.10
2019-02-08T08:40:58.199Z,9.55
2019-02-08T08:43:15.164Z,8.18
2019-02-08T08:45:49.428Z,10.73
2019-02-08T08:48:14.690Z,9.20
2019-02-08T08:50:52.165Z,9.15
2019-02-08T08:53:14.734Z,8.30
2019-02-08T08:55:57.073Z,7.33
2019-02-08T08:58:22.302Z,8.83
2019-02-08T09:00:59.187Z,8.40
2019-02-08T09:03:40.276Z,7.05
2019-02-08T09:06:26.958Z,7.60
2019-02-08T09:08:50.929Z,7.10
2019-02-08T09:11:24.887Z,8.70
2019-02-08T09:13:50.393Z,7.33
2019-02-08T09:16:25.452Z,8.25
2019-02-08T09:18:56.743Z,8.60
2019-02-08T09:21:23.967Z,7.37
2019-02-08T09:23:51.539Z,8.70
2019-02-08T09:26:07.586Z,9.00
2019-02-08T09:28:44.777Z,11.70
2019-02-08T09:31:09.908Z,8.20
2019-02-08T09:33:22.763Z,9.00
2019-02-08T09:36:07.483Z,7.50
2019-02-08T09:38:49.139Z,7.63
2019-02-08T09:41:17.398Z,7.60
2019-02-08T09:44:00.701Z,6.60
2019-02-08T09:46:42.643Z,6.90
2019-02-08T09:49:06.280Z,7.07
2019-02-08T09:51:47.127Z,7.57
2019-02-08T09:54:30.438Z,7.67
2019-02-08T09:56:50.914Z,6.70
2019-02-08T09:59:37.296Z,6.90
2019-02-08T10:02:13.496Z,7.13
2019-02-08T10:04:23.476Z,8.47
2019-02-08T10:07:22.776Z,7.63
2019-02-08T10:09:50.667Z,6.90
2019-02-08T10:12:12.524Z,7.70
2019-02-08T10:14:40.736Z,7.20
2019-02-08T10:17:26.063Z,7.20
2019-02-08T10:20:01.857Z,7.70
2019-02-08T10:22:37.820Z,6.83
2019-02-08T10:25:13.490Z,7.00
2019-02-08T10:27:29.746Z,6.90
2019-02-08T10:29:39.385Z,7.87
2019-02-08T10:32:10.319Z,6.17
2019-02-08T10:34:33.976Z,7.80
2019-02-08T10:37:25.370Z,7.37
2019-02-08T10:39:47.897Z,8.27
2019-02-08T10:42:26.655Z,6.80
2019-02-08T10:44:39.818Z,7.63
2019-02-08T10:47:06.548Z,6.93
2019-02-08T10:49:51.320Z,6.53
2019-02-08T10:52:21.548Z,6.67
2019-02-08T10:55:10.956Z,12.20
2019-02-08T10:57:20.784Z,9.20
2019-02-08T10:59:49.056Z,12.47
2019-02-08T11:02:22.792Z,8.60
2019-02-08T11:04:59.069Z,7.67
2019-02-08T11:07:27.747Z,7.00
2019-02-08T11:10:17.638Z,7.73
2019-02-08T11:12:49.174Z,7.80
2019-02-08T11:15:25.122Z,7.73
2019-02-08T11:17:58.183Z,7.60
2019-02-08T11:19:59.982Z,7.83
2019-02-08T11:22:01.865Z,9.17
2019-02-08T11:24:03.969Z,8.50
2019-02-08T11:26:06.744Z,9.40
2019-02-08T11:28:08.624Z,8.67
2019-02-08T11:30:16.137Z,9.07
2019-02-08T11:32:17.802Z,8.60
2019-02-08T11:34:19.525Z,10.40
2019-02-08T11:36:23.112Z,8.77
2019-02-08T11:38:24.994Z,8.07
2019-02-08T11:40:27.356Z,7.73
2019-02-08T11:42:29.157Z,10.47
2019-02-08T11:44:30.835Z,7.20
2019-02-08T11:46:32.738Z,10.07
2019-02-08T11:48:34.609Z,8.43
2019-02-08T11:50:36.496Z,8.97
2019-02-08T11:52:38.355Z,8.50
2019-02-08T11:54:40.028Z,7.63
2019-02-08T11:56:42.101Z,7.60
2019-02-08T11:58:43.836Z,7.10
2019-02-08T12:00:47.550Z,6.93
2019-02-08T12:02:49.335Z,7.03
2019-02-08T12:04:51.116Z,6.53
2019-02-08T12:06:52.767Z,5.10
2019-02-08T12:08:54.529Z,6.70
2019-02-08T12:10:56.783Z,5.73
2019-02-08T12:12:58.153Z,6.97
2019-02-08T12:14:59.552Z,6.47
2019-02-08T12:17:01.044Z,6.53
2019-02-08T12:19:02.703Z,6.50
2019-02-08T12:21:04.154Z,6.10
2019-02-08T12:23:05.562Z,6.30
2019-02-08T12:25:11.230Z,5.80
2019-02-08T12:27:12.640Z,6.60
2019-02-08T12:29:14.308Z,6.83
2019-02-08T12:31:15.653Z,7.03
2019-02-08T12:33:17.061Z,6.57
2019-02-08T12:35:18.451Z,5.80
2019-02-08T12:37:19.909Z,5.90
2019-02-08T12:39:21.267Z,6.67
2019-02-08T12:41:22.619Z,7.17
2019-02-08T12:43:24.131Z,8.60
2019-02-08T12:45:25.607Z,16.00
2019-02-08T12:47:27.014Z,10.20
2019-02-08T12:49:28.376Z,28.23
2019-02-08T12:51:29.797Z,10.20
2019-02-08T12:53:31.152Z,8.73
2019-02-08T12:55:32.496Z,8.03
2019-02-08T12:57:33.915Z,6.50
2019-02-08T12:59:35.267Z,7.80
2019-02-08T13:01:37.976Z,6.70
2019-02-08T13:03:39.544Z,7.20
2019-02-08T13:05:40.979Z,7.63
2019-02-08T13:07:42.318Z,6.83
2019-02-08T13:09:43.690Z,8.30
2019-02-08T13:11:45.368Z,7.40
2019-02-08T13:13:46.741Z,9.37
2019-02-08T13:15:48.174Z,7.87
2019-02-08T13:17:49.691Z,6.80
2019-02-08T13:19:51.045Z,8.63
2019-02-08T13:21:52.399Z,6.07
2019-02-08T13:23:53.819Z,7.43
2019-02-08T13:25:55.221Z,8.13
2019-02-08T13:27:56.576Z,10.13
2019-02-08T13:29:57.924Z,7.60
2019-02-08T13:31:59.344Z,9.67
2019-02-08T13:34:00.678Z,6.70
2019-02-08T13:36:07.756Z,5.80
2019-02-08T13:38:09.192Z,7.00
2019-02-08T13:40:15.166Z,6.13
2019-02-08T13:42:16.493Z,5.90
2019-02-08T13:44:17.937Z,6.63
2019-02-08T13:46:19.314Z,5.80
2019-02-08T13:48:20.673Z,6.17
2019-02-08T13:50:33.372Z,6.50
2019-02-08T13:52:34.884Z,8.07
2019-02-08T13:54:36.446Z,7.30
2019-02-08T13:56:37.811Z,7.33
2019-02-08T13:58:39.246Z,9.77
2019-02-08T14:00:40.602Z,5.80
2019-02-08T14:02:42.711Z,6.93
2019-02-08T14:04:44.276Z,8.30
2019-02-08T14:06:45.694Z,6.93
2019-02-08T14:08:47.060Z,6.67
2019-02-08T14:10:48.410Z,9.00
2019-02-08T14:12:50.605Z,9.53
2019-02-08T14:14:51.957Z,6.73
2019-02-08T14:16:53.386Z,4.70
2019-02-08T14:18:54.810Z,5.47
2019-02-08T14:20:56.186Z,6.70
2019-02-08T14:22:57.742Z,5.30
2019-02-08T14:24:59.483Z,4.67
2019-02-08T14:27:08.183Z,5.77
2019-02-08T14:29:04.100Z,4.13
2019-02-08T14:31:05.824Z,4.67
2019-02-08T14:33:07.387Z,4.00
2019-02-08T14:35:11.843Z,3.77
2019-02-08T14:37:13.276Z,4.07
2019-02-08T14:39:14.696Z,4.57
2019-02-08T14:41:16.044Z,4.20
2019-02-08T14:43:17.449Z,3.60
2019-02-08T14:45:18.903Z,3.70
2019-02-08T14:47:20.329Z,5.03
2019-02-08T14:49:21.744Z,4.30
2019-02-08T14:51:23.227Z,3.90
2019-02-08T14:53:24.595Z,3.67
2019-02-08T14:55:26.736Z,14.43
2019-02-08T14:57:28.152Z,16.53
2019-02-08T14:59:29.530Z,16.87
2019-02-08T15:01:30.942Z,16.10
2019-02-08T15:03:32.498Z,12.47
2019-02-08T15:05:33.874Z,7.60
2019-02-08T15:07:35.246Z,5.93
2019-02-08T15:09:36.653Z,7.47
2019-02-08T15:11:38.068Z,4.87
2019-02-08T15:13:39.463Z,8.20
2019-02-08T15:15:40.783Z,6.90
2019-02-08T15:17:42.523Z,5.90
2019-02-08T15:19:43.897Z,5.70
2019-02-08T15:21:45.254Z,6.37
2019-02-08T15:23:47.310Z,4.80
2019-02-08T15:25:48.687Z,5.20
2019-02-08T15:27:50.042Z,4.70
2019-02-08T15:29:51.454Z,4.87
2019-02-08T15:31:52.813Z,4.77
2019-02-08T15:33:54.211Z,6.83
2019-02-08T15:35:55.578Z,6.73
2019-02-08T15:37:57.143Z,5.00
2019-02-08T15:39:58.508Z,6.17
2019-02-08T15:41:59.972Z,7.57
2019-02-08T15:44:01.781Z,6.80
2019-02-08T15:46:03.247Z,7.13
2019-02-08T15:48:04.790Z,7.27
2019-02-08T15:50:08.255Z,13.80
2019-02-08T15:52:09.652Z,9.83
2019-02-08T15:54:11.055Z,6.13
2019-02-08T15:56:12.724Z,4.17
2019-02-08T15:58:14.181Z,4.87
2019-02-08T16:00:28.370Z,7.37
2019-02-08T16:02:29.796Z,5.13
2019-02-08T16:04:31.153Z,3.90
2019-02-08T16:06:32.626Z,3.97
2019-02-08T16:08:33.927Z,4.00
2019-02-08T16:10:35.483Z,3.50
2019-02-08T16:12:36.905Z,3.90
2019-02-08T16:14:38.259Z,3.90
2019-02-08T16:16:39.786Z,3.80
2019-02-08T16:18:41.150Z,4.20
2019-02-08T16:20:42.555Z,3.60
2019-02-08T16:22:43.917Z,3.50
2019-02-08T16:24:45.282Z,3.90
2019-02-08T16:26:46.699Z,4.20
2019-02-08T16:28:48.057Z,3.80
2019-02-08T16:30:49.422Z,3.87
2019-02-08T16:32:50.822Z,4.83
2019-02-08T16:34:52.233Z,9.77
2019-02-08T16:36:53.556Z,4.27
2019-02-08T16:38:54.979Z,3.53
2019-02-08T16:40:56.349Z,4.23
2019-02-08T16:42:57.919Z,4.83
2019-02-08T16:44:59.407Z,3.90
2019-02-08T16:47:01.212Z,3.90
2019-02-08T16:49:03.292Z,4.50
2019-02-08T16:51:05.205Z,4.27
2019-02-08T16:53:08.066Z,4.67
2019-02-08T16:55:11.012Z,3.83
2019-02-08T16:57:12.382Z,4.20
2019-02-08T16:59:13.747Z,4.60
2019-02-08T17:01:15.166Z,4.30
2019-02-08T17:03:16.633Z,4.30
2019-02-08T17:05:21.898Z,5.00
2019-02-08T17:07:23.306Z,4.63
2019-02-08T17:09:24.664Z,4.10
2019-02-08T17:11:26.035Z,4.37
2019-02-08T17:13:27.454Z,4.47
2019-02-08T17:15:33.538Z,3.97
2019-02-08T17:17:34.973Z,4.30
2019-02-08T17:19:36.361Z,3.87
2019-02-08T17:21:37.719Z,4.30
2019-02-08T17:23:39.090Z,4.43
2019-02-08T17:25:40.716Z,4.43
2019-02-08T17:27:42.225Z,4.33
2019-02-08T17:29:43.592Z,5.03
2019-02-08T17:31:45.006Z,4.60
2019-02-08T17:33:46.363Z,4.37
2019-02-08T17:35:47.716Z,4.53
2019-02-08T17:37:49.339Z,4.50
2019-02-08T17:39:50.690Z,4.53
2019-02-08T17:41:52.053Z,4.23
2019-02-08T17:43:53.467Z,4.03
2019-02-08T17:45:54.882Z,4.40
2019-02-08T17:47:58.901Z,5.03
2019-02-08T17:50:00.270Z,3.90
2019-02-08T17:52:01.667Z,4.00
2019-02-08T17:54:03.210Z,4.87
2019-02-08T17:56:04.568Z,4.80
2019-02-08T17:58:06.079Z,4.80
2019-02-08T18:00:28.414Z,5.00
2019-02-08T18:02:29.815Z,3.87
2019-02-08T18:04:31.181Z,4.30
2019-02-08T18:06:32.604Z,4.53
2019-02-08T18:08:33.970Z,5.33
2019-02-08T18:10:35.439Z,4.13
2019-02-08T18:12:36.854Z,4.20
2019-02-08T18:14:38.272Z,4.93
2019-02-08T18:16:39.648Z,4.73
2019-02-08T18:18:41.062Z,4.43
2019-02-08T18:20:47.231Z,3.87
2019-02-08T18:22:48.609Z,3.93
2019-02-08T18:24:50.011Z,4.90
2019-02-08T18:26:51.371Z,3.77
2019-02-08T18:28:52.724Z,3.53
2019-02-08T18:30:54.135Z,4.20
2019-02-08T18:32:55.609Z,4.80
2019-02-08T18:34:56.966Z,4.77
2019-02-08T18:36:58.749Z,3.70
2019-02-08T18:39:00.195Z,4.53
2019-02-08T18:41:01.556Z,4.00
2019-02-08T18:43:04.535Z,4.80
2019-02-08T18:45:13.637Z,5.67
2019-02-08T18:47:15.015Z,4.37
2019-02-08T18:49:16.542Z,5.20
2019-02-08T18:51:17.925Z,5.10
2019-02-08T18:53:19.307Z,3.50
2019-02-08T18:55:20.718Z,4.77
2019-02-08T18:57:22.119Z,5.50
2019-02-08T18:59:23.454Z,4.63
2019-02-08T19:01:24.856Z,5.03
2019-02-08T19:03:26.212Z,4.90
2019-02-08T19:05:27.815Z,5.00
2019-02-08T19:07:29.177Z,4.60
2019-02-08T19:09:30.545Z,5.03
2019-02-08T19:11:31.959Z,5.50
2019-02-08T19:13:33.745Z,8.20
2019-02-08T19:15:35.454Z,6.30
2019-02-08T19:17:36.833Z,8.50
2019-02-08T19:19:38.515Z,18.30
2019-02-08T19:21:39.882Z,5.93
2019-02-08T19:23:41.238Z,7.47
2019-02-08T19:25:44.453Z,5.80
2019-02-08T19:27:45.804Z,5.03
2019-02-08T19:29:47.170Z,5.67
2019-02-08T19:31:48.587Z,5.00
2019-02-08T19:33:49.959Z,5.60
2019-02-08T19:35:51.318Z,5.43
2019-02-08T19:37:52.833Z,5.33
2019-02-08T19:39:54.818Z,5.07
2019-02-08T19:41:57.070Z,5.03
2019-02-08T19:43:58.431Z,5.37
2019-02-08T19:45:59.928Z,4.93
2019-02-08T19:48:01.719Z,6.07
2019-02-08T19:50:08.826Z,6.07
2019-02-08T19:52:10.308Z,6.50
2019-02-08T19:54:11.669Z,5.50
2019-02-08T19:56:14.079Z,5.60
2019-02-08T19:58:15.524Z,5.47
2019-02-08T20:00:24.837Z,5.73
2019-02-08T20:02:26.216Z,5.90
2019-02-08T20:04:29.023Z,6.40
2019-02-08T20:06:30.408Z,6.97
2019-02-08T20:08:31.795Z,6.43
2019-02-08T20:10:42.936Z,6.57
2019-02-08T20:12:44.270Z,7.03
2019-02-08T20:14:46.062Z,7.70
2019-02-08T20:16:47.406Z,6.50
2019-02-08T20:18:48.856Z,7.20
2019-02-08T20:20:50.201Z,7.23
2019-02-08T20:22:51.632Z,6.53
2019-02-08T20:24:53.065Z,6.90
2019-02-08T20:26:54.447Z,7.57
2019-02-08T20:28:55.830Z,7.80
2019-02-08T20:30:57.320Z,6.87
2019-02-08T20:32:59.609Z,7.43
2019-02-08T20:35:00.969Z,7.10
2019-02-08T20:37:02.489Z,7.60
2019-02-08T20:39:06.095Z,8.80
2019-02-08T20:41:07.439Z,8.20
2019-02-08T20:43:10.309Z,8.10
2019-02-08T20:45:26.723Z,6.93
2019-02-08T20:47:28.153Z,6.60
2019-02-08T20:49:29.531Z,7.80
2019-02-08T20:51:30.951Z,7.77
2019-02-08T20:53:32.405Z,7.30
2019-02-08T20:55:34.522Z,7.80
2019-02-08T20:57:36.572Z,9.37
2019-02-08T20:59:38.893Z,7.80
2019-02-08T21:01:40.401Z,8.03
2019-02-08T21:03:41.836Z,8.83
2019-02-08T21:05:45.658Z,8.20
2019-02-08T21:07:47.162Z,8.27
2019-02-08T21:09:48.767Z,8.00
2019-02-08T21:11:50.170Z,8.87
2019-02-08T21:13:51.595Z,10.67
2019-02-08T21:15:52.989Z,6.43
2019-02-08T21:17:54.391Z,8.97
2019-02-08T21:19:55.771Z,8.63
2019-02-08T21:21:57.301Z,8.20
2019-02-08T21:23:58.735Z,8.43
2019-02-08T21:26:00.173Z,9.67
2019-02-08T21:28:01.561Z,8.67
2019-02-08T21:30:08.534Z,9.47
2019-02-08T21:32:09.949Z,8.80
2019-02-08T21:34:11.338Z,9.83
2019-02-08T21:36:12.709Z,9.67
2019-02-08T21:38:14.232Z,9.20
2019-02-08T21:40:26.210Z,9.77
2019-02-08T21:42:27.581Z,9.57
2019-02-08T21:44:29.377Z,9.68
2019-02-08T21:46:30.727Z,10.77
2019-02-08T21:48:32.077Z,10.10
2019-02-08T21:50:33.505Z,10.17
2019-02-08T21:52:35.142Z,8.40
2019-02-08T21:54:36.521Z,9.13
2019-02-08T21:56:38.324Z,9.90
2019-02-08T21:58:39.706Z,9.27
2019-02-08T22:00:42.455Z,9.20
2019-02-08T22:02:43.969Z,8.77
2019-02-08T22:04:45.328Z,9.73
2019-02-08T22:06:46.822Z,9.07
2019-02-08T22:08:48.378Z,9.37
2019-02-08T22:10:49.832Z,9.43
2019-02-08T22:12:51.172Z,9.40
2019-02-08T22:14:52.604Z,9.80
2019-02-08T22:16:53.942Z,8.73
2019-02-08T22:18:55.291Z,9.40
2019-02-08T22:20:57.432Z,10.47
2019-02-08T22:22:58.768Z,7.90
2019-02-08T22:25:00.249Z,9.90
2019-02-08T22:27:01.677Z,9.10
2019-02-08T22:29:03.044Z,10.30
2019-02-08T22:31:04.487Z,9.60
2019-02-08T22:33:08.517Z,9.53
2019-02-08T22:35:13.176Z,9.83
2019-02-08T22:37:14.632Z,9.00
2019-02-08T22:39:16.050Z,9.93
2019-02-08T22:41:17.429Z,8.57
2019-02-08T22:43:18.787Z,8.80
2019-02-08T22:45:33.308Z,9.13
2019-02-08T22:47:35.015Z,8.40
2019-02-08T22:49:36.411Z,9.20
2019-02-08T22:51:37.731Z,8.60
2019-02-08T22:53:39.152Z,8.30
2019-02-08T22:55:40.491Z,8.70
2019-02-08T22:57:41.843Z,8.10
2019-02-08T22:59:43.260Z,7.37
2019-02-08T23:01:46.727Z,8.53
2019-02-08T23:03:48.096Z,7.57
2019-02-08T23:05:49.458Z,7.43
2019-02-08T23:07:50.823Z,8.13
2019-02-08T23:09:52.252Z,8.27
2019-02-08T23:11:53.663Z,8.50
2019-02-08T23:13:55.137Z,8.00
2019-02-08T23:15:56.463Z,5.50
2019-02-08T23:17:57.906Z,7.00
2019-02-08T23:19:59.298Z,8.93
2019-02-08T23:22:00.656Z,6.80
2019-02-08T23:24:02.093Z,7.70
2019-02-08T23:26:04.237Z,7.27
2019-02-08T23:28:05.801Z,7.33
2019-02-08T23:30:16.777Z,5.57
2019-02-08T23:32:18.134Z,8.10
2019-02-08T23:34:19.537Z,7.80
2019-02-08T23:36:21.199Z,6.80
2019-02-08T23:38:22.556Z,7.40
2019-02-08T23:40:23.917Z,7.73
2019-02-08T23:42:25.309Z,7.10
2019-02-08T23:44:26.672Z,6.80
2019-02-08T23:46:28.066Z,6.03
2019-02-08T23:48:29.473Z,7.22
2019-02-08T23:50:30.845Z,5.70
2019-02-08T23:52:32.319Z,6.70
2019-02-08T23:54:33.924Z,6.07
2019-02-08T23:56:35.272Z,6.30
2019-02-08T23:58:36.708Z,6.83
